Time;durP1;ratioP1;P1;durP2;ratioP2;P2;SDS_P1;SDS_P2;PMS_P1;PMS_P2;Temp;Humidity;BMP_temperature;BMP_pressure;BME280_temperature;BME280_humidity;BME280_pressure;Samples;Min_cycle;Max_cycle;Signal;HPM_P1;HPM_P2
2022/03/09 00:02:42;;;;;;;38.47;18.07;;;1.30;99.90;;;;;;10392858;28;20124;-86
2022/03/09 00:07:43;;;;;;;42.17;19.67;;;1.30;99.90;;;;;;10392770;28;20088;-86
2022/03/09 00:12:43;;;;;;;41.30;18.40;;;1.30;99.90;;;;;;10393038;28;20481;-86
2022/03/09 00:17:44;;;;;;;107.57;39.23;;;1.20;99.90;;;;;;10409738;28;20030;-88
2022/03/09 00:22:45;;;;;;;84.20;34.73;;;1.20;99.90;;;;;;10409050;28;20040;-86
2022/03/09 00:27:46;;;;;;;77.37;32.80;;;1.30;99.90;;;;;;10391550;28;20060;-86
2022/03/09 00:32:46;;;;;;;91.50;39.93;;;1.30;99.90;;;;;;10408773;28;20049;-87
2022/03/09 00:37:47;;;;;;;76.57;36.87;;;1.20;99.90;;;;;;10409815;28;20033;-87
2022/03/09 00:42:48;;;;;;;91.77;42.37;;;1.30;99.90;;;;;;10408096;28;20033;-86
2022/03/09 00:47:49;;;;;;;76.40;34.87;;;1.30;99.90;;;;;;10409022;28;20036;-87
2022/03/09 00:52:50;;;;;;;86.33;38.93;;;1.30;99.90;;;;;;10408099;28;20417;-86
2022/03/09 00:57:50;;;;;;;70.83;33.17;;;1.30;99.90;;;;;;10407951;28;20045;-89
2022/03/09 01:02:51;;;;;;;74.53;33.67;;;1.30;99.90;;;;;;10407956;28;20037;-86
2022/03/09 01:07:51;;;;;;;69.97;33.67;;;1.30;99.90;;;;;;10406549;28;20057;-86
2022/03/09 01:12:52;;;;;;;84.00;37.30;;;1.30;99.90;;;;;;10408278;28;20418;-86
2022/03/09 01:17:53;;;;;;;74.00;32.20;;;1.20;99.90;;;;;;10407737;28;20509;-86
2022/03/09 01:22:53;;;;;;;72.10;31.23;;;1.30;99.90;;;;;;10407220;28;20461;-86
2022/03/09 01:27:54;;;;;;;59.13;28.83;;;1.30;99.90;;;;;;10409056;28;20044;-86
2022/03/09 01:32:55;;;;;;;56.23;26.23;;;1.30;99.90;;;;;;10406846;28;20045;-86
2022/03/09 01:37:56;;;;;;;53.13;25.43;;;1.30;99.90;;;;;;10416405;28;20029;-86
2022/03/09 01:42:56;;;;;;;45.40;24.97;;;1.30;99.90;;;;;;10415736;28;20041;-86
2022/03/09 01:47:57;;;;;;;46.13;21.00;;;1.40;99.90;;;;;;10416601;28;20041;-86
2022/03/09 01:52:59;;;;;;;58.33;27.73;;;1.40;99.90;;;;;;10415649;28;20477;-88
2022/03/09 01:58:00;;;;;;;55.57;24.17;;;1.50;99.90;;;;;;10415766;28;20025;-86
2022/03/09 02:03:01;;;;;;;58.40;27.20;;;1.50;99.90;;;;;;10397153;28;20033;-87
2022/03/09 02:13:21;;;;;;;62.30;30.07;;;1.50;99.90;;;;;;10414328;28;20792;-88
2022/03/09 02:18:22;;;;;;;71.33;34.53;;;1.50;99.90;;;;;;10414227;28;20021;-86
2022/03/09 02:23:23;;;;;;;88.53;42.00;;;1.40;99.90;;;;;;10396583;28;20029;-87
2022/03/09 02:28:24;;;;;;;96.40;45.50;;;1.50;99.90;;;;;;10396768;28;20052;-86
2022/03/09 02:33:25;;;;;;;86.20;41.73;;;1.50;99.90;;;;;;10395940;28;20052;-88
2022/03/09 02:38:26;;;;;;;66.20;34.00;;;1.40;99.90;;;;;;10413853;28;20358;-87
2022/03/09 02:43:27;;;;;;;79.10;37.07;;;1.40;99.90;;;;;;10413162;28;20120;-87
2022/03/09 02:48:27;;;;;;;77.37;34.73;;;1.30;99.90;;;;;;10413245;28;20505;-87
2022/03/09 02:53:28;;;;;;;68.37;30.20;;;1.30;99.90;;;;;;10412785;28;20042;-87
2022/03/09 02:58:29;;;;;;;74.87;33.83;;;1.30;99.90;;;;;;10395975;28;20141;-87
2022/03/09 03:03:29;;;;;;;71.80;32.17;;;1.30;99.90;;;;;;10413057;28;20037;-86
2022/03/09 03:08:30;;;;;;;59.07;29.43;;;1.30;99.90;;;;;;10412389;28;20053;-86
2022/03/09 03:13:31;;;;;;;57.83;27.53;;;1.30;99.90;;;;;;10412679;28;20033;-86
2022/03/09 03:18:32;;;;;;;55.23;27.53;;;1.30;99.90;;;;;;10412609;28;20327;-85
2022/03/09 03:23:35;;;;;;;58.13;26.67;;;1.30;99.90;;;;;;10412263;28;20083;-86
2022/03/09 03:28:35;;;;;;;61.77;29.23;;;1.40;99.90;;;;;;10394878;28;20044;-86
2022/03/09 03:33:36;;;;;;;82.97;36.67;;;1.30;99.90;;;;;;10411704;28;20057;-88
2022/03/09 03:38:37;;;;;;;104.00;43.37;;;1.30;99.90;;;;;;10411763;28;20041;-86
2022/03/09 03:43:37;;;;;;;96.20;39.57;;;1.30;99.90;;;;;;10412524;28;20041;-88
2022/03/09 03:48:38;;;;;;;79.93;37.70;;;1.30;99.90;;;;;;10410417;28;20060;-86
2022/03/09 03:53:39;;;;;;;70.50;33.83;;;1.30;99.90;;;;;;10411306;28;20036;-86
2022/03/09 03:58:39;;;;;;;62.40;29.37;;;1.30;99.90;;;;;;10410417;28;20029;-86
2022/03/09 04:03:40;;;;;;;61.17;30.77;;;1.30;99.90;;;;;;10397738;28;20567;-84
2022/03/09 04:08:41;;;;;;;63.13;30.90;;;1.30;99.90;;;;;;10369614;28;20132;-85
2022/03/09 04:13:42;;;;;;;60.87;29.27;;;1.30;99.90;;;;;;10387266;28;20376;-84
2022/03/09 04:18:43;;;;;;;53.13;27.17;;;1.30;99.90;;;;;;10391900;28;20038;-85
2022/03/09 04:23:43;;;;;;;63.37;32.27;;;1.30;99.90;;;;;;10406515;28;20033;-84
2022/03/09 04:28:44;;;;;;;59.93;30.83;;;1.40;99.90;;;;;;10365466;28;20084;-84
2022/03/09 04:33:46;;;;;;;66.17;31.87;;;1.30;99.90;;;;;;10409225;28;20037;-84
2022/03/09 04:38:47;;;;;;;69.93;35.43;;;1.40;99.90;;;;;;10409259;28;20066;-84
2022/03/09 04:43:48;;;;;;;62.90;33.50;;;1.40;99.90;;;;;;10409415;28;20740;-86
2022/03/09 04:48:49;;;;;;;65.53;32.77;;;1.40;99.90;;;;;;10407581;28;20121;-85
2022/03/09 04:53:49;;;;;;;76.73;34.97;;;1.40;99.90;;;;;;10408884;28;20029;-86
2022/03/09 04:58:50;;;;;;;67.37;33.10;;;1.40;99.90;;;;;;10394902;28;20385;-87
2022/03/09 05:03:51;;;;;;;74.93;35.43;;;1.40;99.90;;;;;;10388261;28;20022;-86
2022/03/09 05:08:52;;;;;;;81.13;40.70;;;1.40;99.90;;;;;;10408277;28;20049;-86
2022/03/09 05:13:52;;;;;;;99.40;48.77;;;1.30;99.90;;;;;;10405407;28;20090;-87
2022/03/09 05:18:53;;;;;;;84.83;41.77;;;1.30;99.90;;;;;;10390361;28;20026;-84
2022/03/09 05:23:53;;;;;;;89.93;46.73;;;1.30;99.90;;;;;;10389492;28;20033;-87
2022/03/09 05:28:56;;;;;;;84.30;41.87;;;1.30;99.90;;;;;;10405938;28;20044;-83
2022/03/09 05:33:57;;;;;;;86.73;42.07;;;1.30;99.90;;;;;;10387695;28;20083;-85
2022/03/09 05:38:58;;;;;;;85.03;38.80;;;1.30;99.90;;;;;;10407630;28;20032;-84
2022/03/09 05:43:58;;;;;;;77.73;38.27;;;1.30;99.90;;;;;;10393120;28;20030;-84
2022/03/09 05:48:59;;;;;;;80.03;38.97;;;1.40;99.90;;;;;;10367092;28;20034;-84
2022/03/09 05:54:00;;;;;;;84.27;38.80;;;1.30;99.90;;;;;;10367108;28;20103;-84
2022/03/09 05:59:00;;;;;;;82.60;43.03;;;1.30;99.90;;;;;;10367107;28;20061;-83
2022/03/09 06:04:02;;;;;;;76.90;39.27;;;1.40;99.90;;;;;;10359780;28;20034;-83
2022/03/09 06:09:03;;;;;;;91.70;45.87;;;1.40;99.90;;;;;;10367642;28;20133;-84
2022/03/09 06:14:03;;;;;;;83.13;40.50;;;1.50;99.90;;;;;;10348869;28;20116;-85
2022/03/09 06:19:04;;;;;;;88.17;45.23;;;1.60;99.90;;;;;;10350587;28;20032;-84
2022/03/09 06:24:05;;;;;;;98.50;46.90;;;1.70;99.90;;;;;;10373814;28;20030;-84
2022/03/09 06:29:08;;;;;;;100.57;53.10;;;1.80;99.90;;;;;;10374407;28;20038;-85
2022/03/09 06:34:09;;;;;;;116.80;63.73;;;1.90;99.90;;;;;;10410042;28;20033;-83
2022/03/09 06:39:12;;;;;;;98.03;48.07;;;2.00;99.90;;;;;;10412978;28;20025;-85
2022/03/09 06:44:14;;;;;;;96.73;46.70;;;2.10;99.90;;;;;;10387541;28;20049;-86
2022/03/09 06:49:15;;;;;;;106.97;49.97;;;2.20;99.90;;;;;;10396520;28;20164;-86
2022/03/09 06:54:16;;;;;;;124.77;53.23;;;2.20;99.90;;;;;;10414207;28;20100;-83
2022/03/09 06:59:16;;;;;;;99.87;43.70;;;2.40;99.90;;;;;;10413359;28;20029;-83
2022/03/09 07:04:17;;;;;;;64.50;31.73;;;2.50;99.90;;;;;;10410084;28;20033;-82
2022/03/09 07:09:18;;;;;;;59.10;29.67;;;2.60;99.90;;;;;;10410492;28;20666;-84
2022/03/09 07:14:20;;;;;;;50.70;24.50;;;2.70;99.90;;;;;;10415884;28;20025;-84
2022/03/09 07:19:21;;;;;;;49.17;23.77;;;2.80;99.90;;;;;;10394634;28;20032;-82
2022/03/09 07:24:21;;;;;;;48.60;25.07;;;2.90;99.90;;;;;;10414342;28;20044;-83
2022/03/09 07:29:23;;;;;;;54.27;26.93;;;2.90;99.90;;;;;;10391546;28;20173;-82
2022/03/09 07:34:24;;;;;;;51.60;26.47;;;3.00;99.90;;;;;;10393353;28;20080;-83
2022/03/09 07:39:28;;;;;;;56.03;25.60;;;3.10;99.90;;;;;;10397937;28;20034;-82
2022/03/09 07:44:29;;;;;;;54.47;26.07;;;3.10;99.90;;;;;;10412046;28;20493;-84
2022/03/09 07:49:33;;;;;;;48.60;26.10;;;3.30;99.90;;;;;;10408792;28;20033;-82
2022/03/09 07:54:34;;;;;;;50.40;25.93;;;3.40;99.90;;;;;;10409969;28;20017;-83
2022/03/09 07:59:34;;;;;;;47.77;24.37;;;3.60;99.90;;;;;;10409764;28;20536;-83
2022/03/09 08:04:35;;;;;;;45.33;23.40;;;3.70;99.90;;;;;;10411606;28;20045;-82
2022/03/09 08:09:36;;;;;;;46.43;22.73;;;3.70;99.90;;;;;;10412126;28;20037;-83
2022/03/09 08:14:37;;;;;;;43.70;21.57;;;3.80;99.90;;;;;;10410917;28;20041;-85
2022/03/09 08:19:38;;;;;;;50.33;23.27;;;4.00;99.90;;;;;;10410729;28;20481;-82
2022/03/09 08:24:38;;;;;;;43.17;22.10;;;4.20;99.90;;;;;;10410651;28;20033;-84
2022/03/09 08:29:39;;;;;;;44.77;21.33;;;4.40;99.90;;;;;;10410651;28;20034;-85
2022/03/09 08:34:40;;;;;;;40.13;20.57;;;4.70;99.90;;;;;;10411145;28;20034;-83
2022/03/09 08:39:43;;;;;;;38.23;20.03;;;4.80;99.90;;;;;;10410123;28;20112;-82
2022/03/09 08:44:43;;;;;;;34.73;17.30;;;5.00;99.90;;;;;;10409662;28;20030;-85
2022/03/09 08:49:44;;;;;;;34.50;16.03;;;5.30;99.90;;;;;;10409520;28;20420;-84
2022/03/09 08:54:45;;;;;;;30.00;16.03;;;5.60;99.40;;;;;;10409598;28;20433;-85
2022/03/09 08:59:46;;;;;;;33.40;15.40;;;5.70;94.30;;;;;;10409820;28;20049;-83
2022/03/09 09:04:47;;;;;;;30.83;14.90;;;5.70;94.10;;;;;;10409705;28;20058;-83
2022/03/09 09:09:48;;;;;;;29.07;14.10;;;5.80;91.50;;;;;;10408981;28;20042;-84
2022/03/09 09:14:49;;;;;;;24.67;13.17;;;5.80;90.10;;;;;;10409451;28;20029;-84
2022/03/09 09:19:51;;;;;;;28.83;13.13;;;6.00;90.10;;;;;;10408835;28;20037;-84
2022/03/09 09:24:52;;;;;;;28.37;12.77;;;6.10;87.00;;;;;;10408854;28;20034;-85
2022/03/09 09:29:52;;;;;;;24.57;11.77;;;6.10;86.80;;;;;;10408182;28;20041;-85
2022/03/09 09:34:53;;;;;;;23.67;12.30;;;6.20;85.90;;;;;;10409161;28;20037;-83
2022/03/09 09:39:54;;;;;;;23.93;13.43;;;6.20;83.00;;;;;;10408093;28;20025;-84
2022/03/09 09:44:56;;;;;;;18.67;10.23;;;6.10;81.80;;;;;;10408903;28;20029;-84
2022/03/09 09:49:57;;;;;;;15.93;9.00;;;6.30;82.40;;;;;;10408473;28;20041;-82
2022/03/09 09:54:59;;;;;;;25.03;11.30;;;6.40;77.30;;;;;;10411482;28;20048;-83
2022/03/09 10:00:02;;;;;;;21.13;10.70;;;6.50;76.70;;;;;;10416674;28;20024;-83
2022/03/09 10:05:03;;;;;;;21.83;9.37;;;6.70;76.30;;;;;;10415602;28;20052;-82
2022/03/09 10:10:17;;;;;;;20.53;10.47;;;6.70;73.80;;;;;;10416116;28;20433;-82
2022/03/09 10:15:18;;;;;;;20.17;9.67;;;6.80;73.40;;;;;;10415865;28;20043;-83
2022/03/09 10:20:23;;;;;;;20.37;9.87;;;7.30;75.00;;;;;;10415331;28;20036;-84
2022/03/09 10:25:23;;;;;;;16.30;8.10;;;7.70;72.90;;;;;;10415317;28;20041;-82
2022/03/09 10:30:31;;;;;;;17.60;8.40;;;8.30;70.50;;;;;;10414688;28;20042;-83
2022/03/09 10:35:31;;;;;;;11.67;7.00;;;8.30;65.70;;;;;;10415390;28;20033;-82
2022/03/09 10:40:40;;;;;;;17.13;7.33;;;8.50;64.70;;;;;;10414641;28;20036;-84
2022/03/09 10:46:12;;;;;;;13.97;7.23;;;8.20;61.40;;;;;;10415660;28;20025;-84
2022/03/09 10:51:40;;;;;;;14.27;7.00;;;7.70;59.70;;;;;;10414008;28;20041;-83
2022/03/09 10:56:41;;;;;;;14.00;7.10;;;7.80;60.80;;;;;;10396238;28;20504;-82
2022/03/09 11:01:43;;;;;;;12.63;6.63;;;7.90;61.30;;;;;;10414040;28;20018;-84
2022/03/09 11:06:48;;;;;;;9.20;5.23;;;7.90;62.20;;;;;;10413924;28;20045;-82
2022/03/09 11:11:49;;;;;;;11.77;5.60;;;7.80;59.40;;;;;;10413254;28;20041;-85
2022/03/09 11:16:50;;;;;;;12.77;6.20;;;7.70;58.60;;;;;;10413709;28;20029;-83
2022/03/09 11:21:51;;;;;;;9.80;4.90;;;7.60;58.70;;;;;;10413560;28;20033;-82
2022/03/09 11:26:55;;;;;;;11.07;6.33;;;7.70;57.80;;;;;;10413409;28;20029;-82
2022/03/09 11:31:56;;;;;;;13.93;7.60;;;8.10;59.20;;;;;;10412989;28;20132;-82
2022/03/09 11:37:05;;;;;;;17.57;7.77;;;8.20;59.90;;;;;;10412786;28;20026;-84
2022/03/09 11:42:25;;;;;;;14.87;7.53;;;8.30;58.50;;;;;;10394739;28;20445;-82
2022/03/09 11:47:26;;;;;;;16.40;7.57;;;8.40;58.90;;;;;;10412296;28;20483;-84
2022/03/09 11:52:31;;;;;;;17.23;8.20;;;8.40;58.90;;;;;;10412121;28;20053;-84
2022/03/09 11:57:50;;;;;;;15.80;8.23;;;8.40;60.60;;;;;;10411600;28;20029;-83
2022/03/09 12:02:54;;;;;;;22.37;10.07;;;8.40;60.30;;;;;;10411492;28;20025;-82
2022/03/09 12:08:12;;;;;;;13.80;7.33;;;8.50;60.40;;;;;;10363138;28;20501;-82
2022/03/09 12:13:37;;;;;;;14.07;7.13;;;8.40;59.60;;;;;;10363525;28;20076;-82
2022/03/09 12:18:39;;;;;;;14.43;8.00;;;8.20;59.80;;;;;;10368830;28;20022;-86
2022/03/09 12:24:18;;;;;;;18.67;8.90;;;7.90;62.10;;;;;;10370148;28;20022;-83
2022/03/09 12:29:23;;;;;;;19.87;9.73;;;8.00;63.10;;;;;;10319140;28;20137;-83
2022/03/09 12:34:35;;;;;;;22.13;13.83;;;8.50;65.10;;;;;;10368200;28;20030;-83
2022/03/09 12:39:36;;;;;;;17.87;9.13;;;9.10;64.50;;;;;;10368814;28;20022;-83
2022/03/09 12:44:37;;;;;;;27.90;13.47;;;9.10;62.50;;;;;;10367966;28;20442;-84
2022/03/09 12:49:46;;;;;;;21.30;11.13;;;9.30;64.80;;;;;;10368373;28;20124;-83
2022/03/09 12:54:48;;;;;;;20.13;11.03;;;9.60;63.40;;;;;;10369057;28;20034;-83
2022/03/09 12:59:52;;;;;;;35.63;16.67;;;9.50;64.10;;;;;;10368190;28;20084;-83
2022/03/09 13:05:00;;;;;;;20.30;10.47;;;9.60;65.10;;;;;;10374007;28;20524;-83
2022/03/09 13:10:08;;;;;;;18.20;10.07;;;9.80;64.90;;;;;;10388662;28;20127;-83
2022/03/09 13:15:09;;;;;;;19.00;9.77;;;9.70;63.10;;;;;;10408809;28;20033;-86
2022/03/09 13:20:11;;;;;;;15.70;8.83;;;9.70;63.90;;;;;;10409620;28;20021;-83
2022/03/09 13:25:12;;;;;;;14.27;8.30;;;9.60;62.70;;;;;;10402556;28;20080;-82
2022/03/09 13:30:22;;;;;;;14.60;8.03;;;9.60;63.00;;;;;;10398812;28;20049;-84
2022/03/09 13:35:24;;;;;;;14.17;8.30;;;9.60;60.20;;;;;;10367797;28;20045;-82
2022/03/09 13:40:25;;;;;;;14.80;7.53;;;9.70;63.10;;;;;;10406534;28;20650;-85
2022/03/09 13:45:28;;;;;;;13.13;7.20;;;9.60;61.60;;;;;;10407699;28;20022;-82
2022/03/09 13:50:32;;;;;;;14.30;7.33;;;9.50;60.50;;;;;;10407890;28;20468;-83
2022/03/09 13:55:39;;;;;;;12.83;6.90;;;9.30;60.70;;;;;;10407150;28;20044;-82
2022/03/09 14:00:42;;;;;;;12.30;6.50;;;9.30;61.20;;;;;;10407283;28;20030;-82
2022/03/09 14:05:47;;;;;;;10.57;6.13;;;9.00;60.40;;;;;;10407625;28;20083;-82
2022/03/09 14:10:48;;;;;;;11.10;5.97;;;9.00;61.20;;;;;;10414781;28;20091;-83
2022/03/09 14:15:49;;;;;;;14.87;6.30;;;9.10;59.80;;;;;;10406882;28;20489;-82
2022/03/09 14:20:51;;;;;;;11.83;6.30;;;9.00;60.40;;;;;;10406877;28;20165;-82
2022/03/09 14:25:52;;;;;;;10.57;5.73;;;8.90;60.50;;;;;;10407021;28;20045;-84
2022/03/09 14:30:52;;;;;;;13.60;7.13;;;8.80;61.30;;;;;;10407137;28;20042;-83
2022/03/09 14:35:53;;;;;;;13.00;7.00;;;8.60;60.80;;;;;;10406202;28;20052;-82
2022/03/09 14:40:54;;;;;;;14.03;7.50;;;8.50;61.30;;;;;;10409757;28;20032;-82
2022/03/09 14:45:55;;;;;;;12.17;7.13;;;8.30;61.10;;;;;;10412885;28;20519;-84
2022/03/09 14:50:56;;;;;;;14.33;7.40;;;8.10;61.70;;;;;;10413769;28;20056;-82
2022/03/09 14:55:56;;;;;;;12.97;6.83;;;8.00;63.20;;;;;;10413742;28;20041;-84
2022/03/09 15:00:57;;;;;;;12.90;6.63;;;8.00;63.20;;;;;;10396114;28;20029;-84
2022/03/09 15:05:58;;;;;;;8.77;5.47;;;8.00;62.90;;;;;;10413321;28;20056;-83
2022/03/09 15:10:59;;;;;;;12.33;6.57;;;7.90;62.40;;;;;;10413182;28;20060;-84
2022/03/09 15:16:00;;;;;;;13.70;7.00;;;7.90;63.20;;;;;;10408209;28;20052;-83
2022/03/09 15:21:01;;;;;;;12.93;7.33;;;7.90;63.30;;;;;;10406165;28;20033;-84
2022/03/09 15:26:03;;;;;;;15.97;7.77;;;7.80;63.70;;;;;;10409687;28;20044;-83
2022/03/09 15:31:04;;;;;;;12.97;7.10;;;7.70;64.10;;;;;;10405104;28;20080;-83
2022/03/09 15:36:05;;;;;;;13.13;6.87;;;7.70;64.40;;;;;;10410299;28;20038;-84
2022/03/09 15:41:07;;;;;;;10.27;5.83;;;7.60;64.50;;;;;;10407037;28;20035;-83
2022/03/09 15:46:08;;;;;;;11.60;5.53;;;7.50;63.30;;;;;;10412541;28;20057;-83
2022/03/09 15:51:08;;;;;;;12.13;6.03;;;7.30;62.80;;;;;;10410224;28;20128;-82
2022/03/09 15:56:10;;;;;;;12.47;6.27;;;7.20;63.20;;;;;;10411743;28;20076;-82
2022/03/09 16:01:11;;;;;;;14.97;7.23;;;7.10;63.80;;;;;;10408071;28;20429;-83
2022/03/09 16:06:12;;;;;;;13.43;7.07;;;7.00;64.20;;;;;;10407430;28;20050;-83
2022/03/09 16:11:13;;;;;;;18.10;7.77;;;6.90;65.20;;;;;;10415327;28;20038;-83
2022/03/09 16:16:14;;;;;;;13.20;7.33;;;6.80;65.70;;;;;;10394727;28;20112;-83
2022/03/09 16:21:16;;;;;;;14.73;6.63;;;6.70;66.00;;;;;;10411789;28;20035;-83
2022/03/09 16:26:17;;;;;;;15.10;7.07;;;6.70;66.40;;;;;;10409467;28;20041;-84
2022/03/09 16:31:20;;;;;;;22.33;8.60;;;6.60;66.60;;;;;;10377673;28;20041;-85
2022/03/09 16:36:20;;;;;;;15.77;8.30;;;6.50;66.80;;;;;;10415466;28;20036;-83
2022/03/09 16:41:22;;;;;;;15.10;7.10;;;6.50;67.10;;;;;;10407162;28;20055;-83
2022/03/09 16:46:22;;;;;;;15.37;7.70;;;6.40;67.40;;;;;;10367118;28;20140;-85
2022/03/09 16:51:23;;;;;;;16.57;6.90;;;6.40;68.00;;;;;;10367066;28;20045;-83
2022/03/09 16:56:24;;;;;;;16.33;7.40;;;6.30;68.30;;;;;;10405376;28;20051;-84
2022/03/09 17:01:25;;;;;;;15.83;8.13;;;6.20;68.70;;;;;;10409156;28;20025;-83
2022/03/09 17:06:25;;;;;;;18.10;8.17;;;6.20;68.90;;;;;;10408543;28;20077;-83
2022/03/09 17:11:26;;;;;;;21.20;10.87;;;6.10;69.40;;;;;;10408394;28;20265;-85
2022/03/09 17:16:27;;;;;;;22.87;11.37;;;6.10;69.70;;;;;;10408646;28;20030;-84
2022/03/09 17:21:28;;;;;;;31.00;13.50;;;6.00;70.10;;;;;;10391040;28;20108;-83
2022/03/09 17:26:29;;;;;;;32.10;15.07;;;6.00;70.60;;;;;;10406458;28;20506;-85
2022/03/09 17:31:29;;;;;;;27.10;12.80;;;5.90;70.80;;;;;;10406434;28;20054;-85
2022/03/09 17:36:34;;;;;;;31.63;12.80;;;5.90;71.10;;;;;;10403397;28;20531;-83
2022/03/09 17:41:35;;;;;;;20.97;11.23;;;5.80;71.40;;;;;;10405690;28;20034;-84
2022/03/09 17:46:36;;;;;;;20.13;10.00;;;5.80;71.90;;;;;;10407411;28;20067;-86
2022/03/09 17:51:37;;;;;;;19.17;9.30;;;5.80;72.40;;;;;;10407615;28;20041;-82
2022/03/09 17:56:38;;;;;;;17.87;9.47;;;5.70;72.70;;;;;;10392824;28;20037;-83
2022/03/09 18:01:38;;;;;;;19.53;10.40;;;5.70;72.90;;;;;;10369257;28;20034;-82
2022/03/09 18:06:39;;;;;;;23.43;10.60;;;5.70;73.10;;;;;;10366449;28;20054;-83
2022/03/09 18:11:40;;;;;;;22.00;10.23;;;5.70;73.40;;;;;;10385290;28;20042;-83
2022/03/09 18:16:40;;;;;;;27.43;11.67;;;5.70;73.60;;;;;;10388197;28;20053;-85
2022/03/09 18:22:06;;;;;;;31.20;14.47;;;5.60;73.50;;;;;;10377656;28;20053;-84
2022/03/09 18:33:20;;;;;;;34.93;14.10;;;5.60;73.90;;;;;;10266799;28;20060;-84
2022/03/09 18:38:21;;;;;;;27.70;12.93;;;5.50;74.20;;;;;;10254925;28;20023;-84
2022/03/09 18:43:22;;;;;;;23.43;11.77;;;5.50;74.40;;;;;;10368304;28;20037;-84
2022/03/09 18:48:23;;;;;;;29.60;12.13;;;5.50;74.60;;;;;;10399712;28;20108;-85
2022/03/09 18:53:23;;;;;;;22.87;11.37;;;5.40;74.60;;;;;;10411657;28;20084;-83
2022/03/09 19:04:28;;;;;;;30.07;13.80;;;5.40;75.00;;;;;;10374748;28;20039;-87
2022/03/09 19:09:43;;;;;;;29.60;12.97;;;5.30;75.20;;;;;;10396729;28;20033;-86
2022/03/09 19:14:44;;;;;;;28.23;13.17;;;5.30;75.30;;;;;;10322854;28;20050;-81
2022/03/09 19:20:38;;;;;;;30.37;14.13;;;5.30;75.50;;;;;;10304098;28;20046;-84
2022/03/09 19:25:47;;;;;;;32.70;14.70;;;5.30;75.40;;;;;;10303248;28;20044;-84
2022/03/09 19:30:48;;;;;;;29.50;13.27;;;5.30;75.60;;;;;;10308978;28;20061;-83
2022/03/09 19:35:49;;;;;;;33.07;14.30;;;5.30;75.80;;;;;;10334276;28;20479;-84
2022/03/09 19:40:50;;;;;;;32.00;13.40;;;5.20;75.70;;;;;;10323885;28;20453;-83
2022/03/09 19:45:51;;;;;;;36.87;16.23;;;5.30;75.80;;;;;;10377369;28;20425;-84
2022/03/09 19:50:52;;;;;;;37.20;15.93;;;5.20;76.10;;;;;;10394438;28;20053;-81
2022/03/09 19:55:53;;;;;;;39.23;17.80;;;5.20;76.20;;;;;;10376643;28;20033;-83
2022/03/09 20:00:54;;;;;;;37.80;17.70;;;5.20;76.20;;;;;;10410119;28;20420;-80
2022/03/09 20:05:55;;;;;;;49.27;21.13;;;5.20;76.40;;;;;;10397518;28;20042;-84
2022/03/09 20:10:56;;;;;;;47.33;20.53;;;5.20;76.60;;;;;;10403481;28;20520;-82
2022/03/09 20:15:57;;;;;;;52.17;21.53;;;5.20;76.40;;;;;;10391846;28;20068;-83
2022/03/09 20:20:58;;;;;;;48.07;22.57;;;5.20;76.60;;;;;;10407066;28;20492;-82
2022/03/09 20:25:59;;;;;;;42.50;20.77;;;5.20;77.50;;;;;;10410940;28;20046;-83
2022/03/09 20:31:00;;;;;;;46.70;21.13;;;5.20;77.60;;;;;;10419517;28;20116;-85
2022/03/09 20:36:00;;;;;;;48.23;21.27;;;5.20;77.80;;;;;;10409303;28;20041;-86
2022/03/09 20:41:01;;;;;;;51.47;22.27;;;5.20;77.60;;;;;;10403140;28;20034;-84
2022/03/09 20:46:02;;;;;;;46.40;21.10;;;5.20;77.90;;;;;;10407844;28;20054;-84
2022/03/09 20:51:05;;;;;;;51.33;22.73;;;5.10;79.90;;;;;;10408422;28;20457;-84
2022/03/09 20:56:06;;;;;;;48.50;21.10;;;5.10;80.00;;;;;;10398540;28;20059;-83
2022/03/09 21:01:08;;;;;;;30.40;13.63;;;5.10;81.40;;;;;;10388113;28;20055;-85
2022/03/09 21:06:08;;;;;;;20.70;9.40;;;5.10;84.90;;;;;;10384876;28;20401;-83
2022/03/09 21:11:09;;;;;;;22.97;8.93;;;5.20;90.10;;;;;;10399204;28;20068;-83
2022/03/09 21:16:09;;;;;;;20.63;9.03;;;5.20;93.90;;;;;;10398692;28;20029;-83
2022/03/09 21:21:10;;;;;;;25.10;10.97;;;5.10;97.50;;;;;;10383608;28;20743;-83
2022/03/09 21:26:11;;;;;;;35.03;12.73;;;5.10;98.50;;;;;;10403055;28;20025;-85
2022/03/09 21:31:11;;;;;;;58.40;19.70;;;5.00;99.90;;;;;;10400539;28;20481;-84
2022/03/09 21:36:12;;;;;;;20.23;9.90;;;5.00;99.90;;;;;;10390194;28;20030;-84
2022/03/09 21:41:13;;;;;;;22.73;10.90;;;4.90;99.90;;;;;;10407606;28;20040;-84
2022/03/09 21:46:14;;;;;;;22.80;11.50;;;4.90;99.90;;;;;;10407989;28;20099;-84
2022/03/09 21:51:16;;;;;;;24.67;13.40;;;4.80;99.90;;;;;;10402247;28;20044;-84
2022/03/09 21:56:17;;;;;;;26.03;13.10;;;4.70;99.90;;;;;;10375800;28;20037;-84
2022/03/09 22:01:18;;;;;;;24.60;11.87;;;4.70;99.90;;;;;;10408943;28;20389;-83
2022/03/09 22:06:18;;;;;;;23.67;11.33;;;4.70;99.90;;;;;;10415613;28;20405;-83
2022/03/09 22:11:19;;;;;;;13.63;7.50;;;4.70;99.90;;;;;;10415110;28;20088;-85
2022/03/09 22:16:20;;;;;;;12.67;6.13;;;4.60;99.90;;;;;;10413858;28;20033;-84
2022/03/09 22:21:24;;;;;;;12.67;7.13;;;4.50;99.90;;;;;;10395288;28;20036;-83
2022/03/09 22:26:25;;;;;;;13.77;6.73;;;4.40;99.90;;;;;;10364002;28;20029;-84
2022/03/09 22:31:26;;;;;;;14.47;6.93;;;4.20;99.90;;;;;;10407385;28;20033;-83
2022/03/09 22:36:28;;;;;;;13.47;6.83;;;4.10;99.90;;;;;;10410261;28;20034;-83
2022/03/09 22:41:30;;;;;;;15.93;7.50;;;4.00;99.90;;;;;;10401077;28;20083;-84
2022/03/09 22:46:30;;;;;;;14.27;7.63;;;3.90;99.90;;;;;;10401144;28;20025;-83
2022/03/09 22:51:36;;;;;;;13.87;8.03;;;3.90;99.90;;;;;;10393182;28;20038;-84
2022/03/09 22:56:38;;;;;;;17.33;8.23;;;3.90;99.90;;;;;;10414534;28;20052;-83
2022/03/09 23:01:39;;;;;;;17.40;8.77;;;3.80;99.90;;;;;;10416077;28;20381;-84
2022/03/09 23:06:40;;;;;;;18.60;9.50;;;3.80;99.90;;;;;;10396495;28;20057;-83
2022/03/09 23:11:41;;;;;;;19.73;10.27;;;3.80;99.90;;;;;;10403589;28;20037;-84
2022/03/09 23:28:36;;;;;;;25.20;13.07;;;3.50;99.90;;;;;;10410751;28;20108;-84
2022/03/09 23:33:36;;;;;;;28.07;13.70;;;3.50;99.90;;;;;;10378509;28;20046;-85
2022/03/09 23:38:37;;;;;;;29.00;13.60;;;3.40;99.90;;;;;;10380712;28;20080;-83
2022/03/09 23:43:37;;;;;;;27.13;12.37;;;3.30;99.90;;;;;;10373193;28;20030;-84
2022/03/09 23:48:38;;;;;;;26.00;13.50;;;3.20;99.90;;;;;;10375668;28;20572;-84
2022/03/09 23:53:39;;;;;;;25.07;12.63;;;3.10;99.90;;;;;;10378377;28;20756;-84
2022/03/09 23:58:40;;;;;;;27.03;13.13;;;3.00;99.90;;;;;;10411346;28;20034;-83
